createdAt,value
2022-08-30T00:01:03.019Z,11.50
2022-08-30T00:05:20.364Z,11.50
2022-08-30T00:09:37.547Z,11.40
2022-08-30T00:13:56.360Z,11.20
2022-08-30T00:18:13.783Z,11.30
2022-08-30T00:22:32.972Z,11.30
2022-08-30T00:26:50.621Z,11.40
2022-08-30T00:31:08.621Z,11.40
2022-08-30T00:35:26.163Z,11.30
2022-08-30T00:39:43.327Z,11.20
2022-08-30T00:44:00.770Z,11.10
2022-08-30T00:48:18.750Z,11.10
2022-08-30T00:52:38.005Z,11.10
2022-08-30T00:56:55.538Z,11.10
2022-08-30T01:01:13.318Z,11.10
2022-08-30T01:05:30.989Z,11.00
2022-08-30T01:09:48.238Z,11.00
2022-08-30T01:14:07.898Z,11.00
2022-08-30T01:18:25.969Z,10.90
2022-08-30T01:22:48.924Z,11.00
2022-08-30T01:27:06.180Z,10.90
2022-08-30T01:31:23.703Z,11.00
2022-08-30T01:35:59.363Z,10.90
2022-08-30T01:40:17.502Z,10.90
2022-08-30T01:44:34.739Z,10.90
2022-08-30T01:48:54.458Z,10.80
2022-08-30T01:53:13.170Z,10.80
2022-08-30T01:57:31.062Z,10.80
2022-08-30T02:01:48.348Z,10.80
2022-08-30T02:06:09.007Z,10.80
2022-08-30T02:10:26.563Z,10.90
2022-08-30T02:14:44.036Z,11.00
2022-08-30T02:19:02.229Z,10.90
2022-08-30T02:23:19.661Z,10.70
2022-08-30T02:27:36.897Z,10.70
2022-08-30T02:31:54.150Z,10.50
2022-08-30T02:36:11.739Z,10.40
2022-08-30T02:40:28.991Z,10.50
2022-08-30T02:44:46.231Z,10.60
2022-08-30T02:49:23.745Z,10.60
2022-08-30T02:53:43.881Z,10.70
2022-08-30T02:58:01.159Z,10.40
2022-08-30T03:02:18.473Z,10.40
2022-08-30T03:06:36.025Z,10.30
2022-08-30T03:10:53.231Z,10.20
2022-08-30T03:15:13.225Z,10.20
2022-08-30T03:19:30.453Z,10.20
2022-08-30T03:23:48.071Z,10.20
2022-08-30T03:28:06.268Z,10.10
2022-08-30T03:32:24.131Z,10.10
2022-08-30T03:36:41.372Z,10.10
2022-08-30T03:40:58.536Z,10.00
2022-08-30T03:45:18.018Z,10.10
2022-08-30T03:49:35.430Z,10.00
2022-08-30T03:53:52.691Z,10.00
2022-08-30T03:58:10.181Z,10.00
2022-08-30T04:02:27.679Z,9.90
2022-08-30T04:06:44.914Z,9.90
2022-08-30T04:11:05.336Z,9.80
2022-08-30T04:15:22.682Z,9.90
2022-08-30T04:19:39.859Z,9.90
2022-08-30T04:23:57.140Z,10.00
2022-08-30T04:28:14.591Z,10.10
2022-08-30T04:32:34.055Z,10.10
2022-08-30T04:36:51.464Z,10.10
2022-08-30T04:41:12.009Z,9.90
2022-08-30T04:45:29.435Z,9.80
2022-08-30T04:49:46.721Z,9.90
2022-08-30T04:54:04.267Z,10.00
2022-08-30T04:58:21.509Z,10.00
2022-08-30T05:02:40.556Z,10.00
2022-08-30T05:06:57.797Z,10.10
2022-08-30T05:11:16.552Z,10.10
2022-08-30T05:15:34.120Z,10.30
2022-08-30T05:19:51.401Z,10.30
2022-08-30T05:24:08.701Z,10.40
2022-08-30T05:28:26.408Z,10.70
2022-08-30T05:32:44.183Z,10.90
2022-08-30T05:37:02.773Z,11.00
2022-08-30T05:41:21.907Z,11.10
2022-08-30T05:45:39.037Z,11.30
2022-08-30T05:49:56.294Z,11.40
2022-08-30T05:54:15.898Z,11.60
2022-08-30T05:58:33.571Z,11.70
2022-08-30T06:02:54.298Z,11.80
2022-08-30T06:07:13.025Z,11.90
2022-08-30T06:11:33.626Z,12.00
2022-08-30T06:15:52.603Z,12.00
2022-08-30T06:20:10.679Z,12.20
2022-08-30T06:24:53.652Z,12.60
2022-08-30T06:29:05.349Z,13.10
2022-08-30T06:33:23.305Z,13.70
2022-08-30T06:37:42.728Z,13.80
2022-08-30T06:41:59.892Z,14.10
2022-08-30T06:46:21.353Z,14.40
2022-08-30T06:50:38.783Z,14.60
2022-08-30T06:54:58.295Z,14.80
2022-08-30T06:59:15.559Z,15.20
2022-08-30T07:03:32.736Z,15.50
2022-08-30T07:07:53.214Z,15.50
2022-08-30T07:12:12.240Z,15.30
2022-08-30T07:16:29.573Z,15.20
2022-08-30T07:20:47.191Z,15.40
2022-08-30T07:25:04.800Z,15.40
2022-08-30T07:29:22.005Z,15.30
2022-08-30T07:33:40.458Z,15.30
2022-08-30T07:37:58.521Z,15.90
2022-08-30T07:42:16.745Z,16.00
2022-08-30T07:46:34.314Z,16.10
2022-08-30T07:50:56.298Z,16.40
2022-08-30T07:55:14.856Z,16.70
2022-08-30T07:59:35.574Z,17.20
2022-08-30T08:03:53.837Z,17.40
2022-08-30T08:08:12.006Z,17.90
2022-08-30T08:12:29.296Z,18.20
2022-08-30T08:16:46.696Z,18.50
2022-08-30T08:21:05.297Z,18.70
2022-08-30T08:25:23.223Z,19.20
2022-08-30T08:29:40.406Z,19.70
2022-08-30T08:38:18.280Z,21.00
2022-08-30T08:42:57.639Z,22.10
2022-08-30T08:47:20.593Z,22.90
2022-08-30T08:51:58.639Z,23.70
2022-08-30T08:56:18.631Z,23.80
2022-08-30T09:00:35.833Z,24.80
2022-08-30T09:04:59.806Z,25.30
2022-08-30T09:09:27.766Z,24.90
2022-08-30T09:13:44.991Z,25.30
2022-08-30T09:18:16.919Z,26.10
2022-08-30T09:22:42.586Z,26.00
2022-08-30T09:27:24.168Z,26.80
2022-08-30T09:32:01.341Z,27.20
2022-08-30T09:36:33.433Z,27.00
2022-08-30T09:40:59.539Z,26.00
2022-08-30T09:45:28.965Z,27.70
2022-08-30T09:49:46.244Z,28.10
2022-08-30T09:54:24.047Z,28.90
2022-08-30T09:59:02.992Z,29.00
2022-08-30T10:03:48.650Z,29.10
2022-08-30T10:08:13.961Z,29.50
2022-08-30T10:12:48.222Z,29.60
2022-08-30T10:17:44.667Z,30.70
2022-08-30T10:22:11.163Z,30.40
2022-08-30T10:26:31.801Z,30.40
2022-08-30T10:30:57.326Z,29.80
2022-08-30T10:35:24.837Z,30.10
2022-08-30T10:39:47.675Z,30.50
2022-08-30T10:44:27.557Z,30.00
2022-08-30T10:48:47.773Z,30.00
2022-08-30T10:53:25.603Z,30.50
2022-08-30T10:57:43.634Z,30.80
2022-08-30T11:02:35.381Z,31.40
2022-08-30T11:07:14.591Z,31.40
2022-08-30T11:11:49.540Z,30.10
2022-08-30T11:16:15.538Z,26.90
2022-08-30T11:20:35.626Z,28.90
2022-08-30T11:25:12.836Z,30.00
2022-08-30T11:29:40.280Z,28.40
2022-08-30T11:34:00.926Z,28.00
2022-08-30T11:38:26.475Z,30.00
2022-08-30T11:42:49.518Z,31.30
2022-08-30T11:47:45.024Z,29.90
2022-08-30T11:52:30.714Z,28.10
2022-08-30T11:57:02.300Z,26.90
2022-08-30T12:01:42.019Z,26.10
2022-08-30T12:06:06.012Z,25.20
2022-08-30T12:10:41.226Z,25.60
2022-08-30T12:15:00.250Z,30.10
2022-08-30T12:19:20.656Z,30.00
2022-08-30T12:24:03.842Z,27.90
2022-08-30T12:28:25.166Z,29.60
2022-08-30T12:32:45.720Z,27.80
2022-08-30T12:37:08.578Z,27.20
2022-08-30T12:41:25.975Z,29.00
2022-08-30T12:45:45.913Z,27.70
2022-08-30T12:50:12.061Z,28.70
2022-08-30T12:54:32.372Z,29.40
2022-08-30T12:58:52.783Z,30.80
2022-08-30T13:03:30.022Z,32.10
2022-08-30T13:07:48.004Z,29.60
2022-08-30T13:12:27.719Z,28.00
2022-08-30T13:16:45.516Z,26.70
2022-08-30T13:21:27.430Z,26.10
2022-08-30T13:25:44.933Z,25.70
2022-08-30T13:30:13.702Z,27.80
2022-08-30T13:34:33.022Z,30.10
2022-08-30T13:38:50.779Z,30.70
2022-08-30T13:43:07.998Z,31.30
2022-08-30T13:47:34.858Z,31.50
2022-08-30T13:52:18.376Z,31.50
2022-08-30T13:56:32.250Z,31.00
2022-08-30T14:00:49.581Z,29.90
2022-08-30T14:05:20.526Z,31.20
2022-08-30T14:09:48.365Z,30.00
2022-08-30T14:14:36.492Z,28.30
2022-08-30T14:18:43.655Z,29.70
2022-08-30T14:23:02.249Z,29.80
2022-08-30T14:27:24.891Z,28.00
2022-08-30T14:31:44.710Z,26.40
2022-08-30T14:36:08.638Z,25.60
2022-08-30T14:40:30.003Z,24.90
2022-08-30T14:44:56.114Z,24.70
2022-08-30T14:49:14.299Z,24.60
2022-08-30T14:53:31.515Z,24.60
2022-08-30T14:57:51.244Z,26.40
2022-08-30T15:02:08.535Z,28.30
2022-08-30T15:06:26.951Z,28.50
2022-08-30T15:10:44.419Z,26.60
2022-08-30T15:15:02.824Z,26.10
2022-08-30T15:19:20.557Z,25.00
2022-08-30T15:23:39.297Z,24.90
2022-08-30T15:27:56.584Z,24.70
2022-08-30T15:32:13.816Z,24.10
2022-08-30T15:36:31.115Z,23.60
2022-08-30T15:40:50.062Z,23.40
2022-08-30T15:45:08.228Z,23.40
2022-08-30T15:49:25.960Z,23.30
2022-08-30T15:53:44.644Z,23.40
2022-08-30T15:58:02.705Z,23.60
2022-08-30T16:02:20.271Z,23.70
2022-08-30T16:06:44.712Z,24.10
2022-08-30T16:11:06.047Z,24.10
2022-08-30T16:15:23.867Z,23.70
2022-08-30T16:19:41.097Z,23.40
2022-08-30T16:24:01.039Z,22.90
2022-08-30T16:28:18.203Z,22.70
2022-08-30T16:32:35.444Z,22.70
2022-08-30T16:36:52.648Z,22.80
2022-08-30T16:41:15.622Z,22.90
2022-08-30T16:45:38.728Z,22.80
2022-08-30T16:50:00.561Z,22.70
2022-08-30T16:54:18.003Z,22.60
2022-08-30T16:58:35.698Z,22.60
2022-08-30T17:02:54.552Z,22.50
2022-08-30T17:07:13.695Z,22.40
2022-08-30T17:11:32.850Z,22.10
2022-08-30T17:15:50.130Z,21.80
2022-08-30T17:20:09.239Z,21.60
2022-08-30T17:24:27.428Z,21.40
2022-08-30T17:28:45.718Z,21.10
2022-08-30T17:33:03.275Z,20.90
2022-08-30T17:37:20.954Z,20.70
2022-08-30T17:41:45.415Z,20.40
2022-08-30T17:46:09.594Z,20.30
2022-08-30T17:50:28.002Z,20.10
2022-08-30T17:54:45.387Z,19.90
2022-08-30T17:59:05.390Z,19.70
2022-08-30T18:03:22.634Z,19.50
2022-08-30T18:07:40.732Z,19.30
2022-08-30T18:11:58.030Z,19.10
2022-08-30T18:16:16.212Z,19.00
2022-08-30T18:20:39.440Z,18.80
2022-08-30T18:25:01.674Z,18.70
2022-08-30T18:29:29.305Z,18.70
2022-08-30T18:33:48.360Z,18.50
2022-08-30T18:38:05.763Z,18.30
2022-08-30T18:42:23.042Z,18.20
2022-08-30T18:46:51.233Z,18.20
2022-08-30T18:51:20.779Z,18.00
2022-08-30T18:55:39.201Z,18.00
2022-08-30T18:59:56.409Z,17.80
2022-08-30T19:04:22.337Z,17.60
2022-08-30T19:08:48.747Z,17.40
2022-08-30T19:13:06.439Z,17.30
2022-08-30T19:17:23.990Z,17.10
2022-08-30T19:21:41.250Z,16.90
2022-08-30T19:25:58.444Z,16.80
2022-08-30T19:30:21.671Z,16.70
2022-08-30T19:34:42.443Z,16.40
2022-08-30T19:38:59.623Z,16.30
2022-08-30T19:43:17.076Z,16.10
2022-08-30T19:47:36.652Z,16.10
2022-08-30T19:51:54.101Z,16.00
2022-08-30T19:56:11.376Z,15.80
2022-08-30T20:00:30.668Z,15.60
2022-08-30T20:04:48.723Z,15.60
2022-08-30T20:09:06.324Z,15.40
2022-08-30T20:13:27.847Z,15.40
2022-08-30T20:18:03.352Z,15.20
2022-08-30T20:22:23.133Z,15.30
2022-08-30T20:26:43.964Z,15.20
2022-08-30T20:31:04.800Z,14.90
2022-08-30T20:35:23.693Z,14.80
2022-08-30T20:39:41.287Z,14.70
2022-08-30T20:43:59.702Z,14.60
2022-08-30T20:48:19.391Z,14.60
2022-08-30T20:52:36.703Z,14.50
2022-08-30T20:56:53.803Z,14.40
2022-08-30T21:01:12.309Z,14.40
2022-08-30T21:05:29.683Z,14.40
2022-08-30T21:09:46.927Z,14.30
2022-08-30T21:14:04.919Z,14.20
2022-08-30T21:18:22.328Z,14.20
2022-08-30T21:22:39.589Z,14.10
2022-08-30T21:26:57.453Z,14.10
2022-08-30T21:31:18.219Z,14.10
2022-08-30T21:35:55.694Z,14.10
2022-08-30T21:40:14.936Z,14.20
2022-08-30T21:44:32.308Z,14.10
2022-08-30T21:48:51.001Z,14.10
2022-08-30T21:53:08.373Z,13.90
2022-08-30T21:57:26.419Z,13.80
2022-08-30T22:01:43.746Z,13.80
2022-08-30T22:06:00.969Z,13.80
2022-08-30T22:10:20.575Z,13.90
2022-08-30T22:14:38.221Z,13.70
2022-08-30T22:18:55.959Z,13.70
2022-08-30T22:23:15.851Z,13.70
2022-08-30T22:27:36.304Z,13.70
2022-08-30T22:31:54.257Z,13.80
2022-08-30T22:36:24.296Z,13.80
2022-08-30T22:40:53.757Z,13.60
2022-08-30T22:45:11.355Z,13.50
2022-08-30T22:49:28.579Z,13.30
2022-08-30T22:53:45.760Z,13.30
2022-08-30T22:58:02.939Z,13.30
2022-08-30T23:02:20.195Z,13.30
2022-08-30T23:06:37.455Z,13.30
2022-08-30T23:10:57.908Z,13.10
2022-08-30T23:15:16.121Z,13.00
2022-08-30T23:19:33.731Z,12.90
2022-08-30T23:24:11.286Z,12.90
2022-08-30T23:28:47.276Z,12.80
2022-08-30T23:33:23.158Z,12.70
2022-08-30T23:37:58.946Z,12.70
2022-08-30T23:42:35.063Z,12.80
2022-08-30T23:47:10.939Z,13.00
2022-08-30T23:51:46.928Z,13.10
2022-08-30T23:56:22.984Z,13.20
